Time;durP1;ratioP1;P1;durP2;ratioP2;P2;SDS_P1;SDS_P2;PMS_P1;PMS_P2;Temp;Humidity;BMP_temperature;BMP_pressure;BME280_temperature;BME280_humidity;BME280_pressure;Samples;Min_cycle;Max_cycle;Signal;HPM_P1;HPM_P2
2023/07/04 00:00:12;;;;;;;29.87;19.30;;;;;;;-141.97;77.50;47480.63;5015207;28;20186;-93
2023/07/04 00:02:46;;;;;;;32.87;19.87;;;;;;;-141.97;77.80;47484.47;5014045;28;20636;-92
2023/07/04 00:09:21;;;;;;;;;;;;;;;;;;;;;
2023/07/04 00:11:50;;;;;;;28.37;18.97;;;;;;;-141.97;78.02;47351.88;4988123;28;20199;-91
2023/07/04 00:14:41;;;;;;;;;;;;;;;;;;;;;
2023/07/04 00:17:06;;;;;;;31.17;19.30;;;;;;;-141.97;78.49;47346.09;4991104;28;20630;-91
2023/07/04 00:19:34;;;;;;;31.87;19.13;;;;;;;-141.97;78.87;47622.88;4974404;28;20188;-91
2023/07/04 00:22:04;;;;;;;28.23;18.73;;;;;;;-141.97;78.06;47361.47;4995888;28;20187;-87
2023/07/04 00:24:30;;;;;;;27.17;18.03;;;;;;;-141.97;77.38;47250.00;4991082;28;20275;-88
2023/07/04 00:26:57;;;;;;;27.67;18.17;;;;;;;-141.97;77.43;47421.06;4993519;28;20254;-88
2023/07/04 00:32:29;;;;;;;27.10;18.33;;;;;;;-141.97;77.50;47373.00;4932149;29;20197;-90
2023/07/04 00:34:55;;;;;;;23.77;17.27;;;;;;;-141.97;77.64;47211.56;4932074;28;20188;-87
2023/07/04 00:37:26;;;;;;;26.37;18.20;;;;;;;-141.97;78.15;47392.22;4916474;29;20177;-87
2023/07/04 00:39:54;;;;;;;28.10;18.83;;;;;;;-141.97;77.78;47576.75;4932013;29;20193;-88
2023/07/04 00:42:21;;;;;;;27.13;18.40;;;;;;;-141.97;77.75;47488.31;4932349;29;20221;-88
2023/07/04 00:44:55;;;;;;;28.03;18.37;;;;;;;-141.97;77.80;47757.41;4935745;29;20221;-88
2023/07/04 00:47:33;;;;;;;29.17;18.87;;;;;;;-141.97;77.71;47538.28;4935807;29;20189;-87
2023/07/04 00:50:10;;;;;;;26.03;18.00;;;;;;;-141.97;77.93;47611.34;4935932;29;20277;-87
2023/07/04 00:52:45;;;;;;;29.67;18.70;;;;;;;-141.97;78.73;47226.94;4936416;29;20549;-88
2023/07/04 00:55:23;;;;;;;26.63;18.60;;;;;;;-141.97;79.12;47546.00;4935480;29;20228;-87
2023/07/04 00:57:49;;;;;;;26.10;18.90;;;;;;;-141.97;79.42;47317.28;4935489;29;20173;-89
2023/07/04 01:00:19;;;;;;;28.57;18.83;;;;;;;-141.97;79.58;47657.47;4937354;29;20248;-88
2023/07/04 01:02:48;;;;;;;28.80;19.10;;;;;;;-141.97;79.69;47524.84;4953214;29;20277;-87
2023/07/04 01:05:23;;;;;;;28.57;19.07;;;;;;;-141.97;79.84;47586.34;4992735;28;20211;-88
2023/07/04 01:08:12;;;;;;;28.53;19.07;;;;;;;-141.97;80.01;47542.16;4998660;28;20209;-88
2023/07/04 01:10:42;;;;;;;28.17;18.70;;;;;;;-141.97;80.11;47605.56;5035413;28;20162;-88
2023/07/04 01:13:58;;;;;;;29.37;18.30;;;;;;;-141.97;79.86;47549.84;5035737;28;20258;-90
2023/07/04 01:16:25;;;;;;;25.13;18.17;;;;;;;-141.97;79.63;47540.22;4996306;28;20180;-89
2023/07/04 01:22:33;;;;;;;26.43;19.13;;;;;;;-141.97;81.76;47388.38;4974063;28;20281;-90
2023/07/04 01:25:20;;;;;;;29.67;18.03;;;;;;;-141.97;82.12;47511.38;4956601;28;20323;-88
2023/07/04 01:27:59;;;;;;;26.17;18.37;;;;;;;-141.97;82.67;47665.16;4974925;28;20255;-87
2023/07/04 01:30:35;;;;;;;26.77;18.17;;;;;;;-141.97;82.03;47488.31;4974050;28;20187;-88
2023/07/04 01:33:13;;;;;;;23.60;17.20;;;;;;;-141.97;82.34;47509.47;4973768;28;20175;-88
2023/07/04 01:35:50;;;;;;;24.70;17.50;;;;;;;-141.97;81.81;47695.91;4974235;28;20254;-87
2023/07/04 01:38:21;;;;;;;25.70;18.27;;;;;;;-141.97;81.45;47653.63;4974093;28;20167;-87
2023/07/04 01:41:41;;;;;;;23.67;17.30;;;;;;;-141.97;80.65;47517.16;4972486;28;20192;-87
2023/07/04 01:44:15;;;;;;;22.37;16.70;;;;;;;-141.97;80.05;47561.38;4935903;28;20618;-88
2023/07/04 01:46:49;;;;;;;20.90;16.43;;;;;;;-141.97;80.28;47653.63;4935776;29;20193;-88
2023/07/04 01:49:30;;;;;;;22.70;16.37;;;;;;;-141.97;80.41;47586.34;4935147;29;20228;-88
2023/07/04 01:52:27;;;;;;;23.80;16.60;;;;;;;-141.97;80.18;47394.16;4935045;29;20632;-88
2023/07/04 01:55:01;;;;;;;22.60;15.63;;;;;;;-141.97;81.09;47323.03;4934308;29;20198;-88
2023/07/04 01:58:06;;;;;;;24.67;17.07;;;;;;;-141.97;80.21;47532.53;4935585;29;20169;-88
2023/07/04 02:00:43;;;;;;;22.10;16.37;;;;;;;-141.97;80.10;47486.41;4916191;29;20198;-87
2023/07/04 02:03:29;;;;;;;21.90;16.43;;;;;;;-141.97;80.07;47480.63;4900693;29;20184;-88
2023/07/04 02:06:10;;;;;;;21.13;16.30;;;;;;;-141.97;79.73;47611.34;4916355;29;20606;-88
2023/07/04 02:09:17;;;;;;;22.27;16.17;;;;;;;-141.97;79.90;47519.06;4916477;29;20329;-88
2023/07/04 02:11:48;;;;;;;24.23;15.80;;;;;;;-141.97;79.58;47672.84;4916412;29;20196;-88
2023/07/04 02:14:22;;;;;;;20.67;15.73;;;;;;;-141.97;80.58;47324.97;4897478;29;20283;-88
2023/07/04 02:17:21;;;;;;;21.97;16.60;;;;;;;-141.97;80.65;47572.91;4897288;29;20218;-88
2023/07/04 02:19:47;;;;;;;24.37;16.73;;;;;;;-141.97;80.71;47476.78;4902770;29;20244;-90
2023/07/04 02:22:12;;;;;;;24.50;16.60;;;;;;;-141.97;81.83;47290.38;4936701;29;20189;-90
2023/07/04 02:24:38;;;;;;;23.63;16.10;;;;;;;-141.97;81.11;47690.16;4934958;29;20218;-90
2023/07/04 02:28:20;;;;;;;;;;;;;;;;;;;;;
2023/07/04 02:31:47;;;;;;;20.50;15.63;;;;;;;-141.97;79.94;47553.69;4937861;29;20275;-90
2023/07/04 02:44:06;;;;;;;21.63;15.87;;;;;;;-141.97;79.85;47547.91;4860121;29;20260;-90
2023/07/04 02:47:29;;;;;;;;;;;;;;;;;;;;;
2023/07/04 02:50:59;;;;;;;22.67;16.23;;;;;;;-141.97;80.35;47553.69;4854680;29;20219;-90
2023/07/04 03:11:34;;;;;;;20.53;15.27;;;;;;;-141.97;81.55;47461.41;4693749;30;20244;-88
2023/07/04 03:14:02;;;;;;;22.33;15.70;;;;;;;-141.97;81.28;47676.69;4704773;30;20781;-89
2023/07/04 03:16:28;;;;;;;22.27;15.10;;;;;;;-141.97;81.24;47476.78;4741186;30;20199;-90
2023/07/04 03:18:56;;;;;;;20.53;15.10;;;;;;;-141.97;82.18;47659.38;4758094;30;20185;-89
2023/07/04 03:21:22;;;;;;;20.07;14.77;;;;;;;-141.97;83.16;47434.50;4759990;30;20203;-90
2023/07/04 03:23:47;;;;;;;22.53;15.20;;;;;;;-141.97;83.37;47334.56;4755633;30;20191;-91
2023/07/04 03:26:13;;;;;;;21.17;15.20;;;;;;;-141.97;83.19;47594.03;4766868;30;20365;-91
2023/07/04 03:29:20;;;;;;;22.43;15.40;;;;;;;-141.97;83.25;47426.81;4787933;29;20192;-91
2023/07/04 03:32:38;;;;;;;;;;;;;;;;;;;;;
2023/07/04 03:35:38;;;;;;;;;;;;;;;;;;;;;
2023/07/04 03:39:13;;;;;;;;;;;;;;;;;;;;;
2023/07/04 03:42:36;;;;;;;22.77;15.20;;;;;;;-141.97;83.17;47570.97;4881598;29;20202;-89
2023/07/04 03:53:14;;;;;;;22.33;14.87;;;;;;;-141.97;81.54;47482.56;4893622;29;20526;-91
2023/07/04 04:06:58;;;;;;;;;;;;;;;;;;;;;
2023/07/04 04:09:52;;;;;;;21.27;14.80;;;;;;;-141.97;78.40;47497.94;4770077;30;20201;-89
2023/07/04 04:12:55;;;;;;;20.30;14.60;;;;;;;-141.97;78.74;47561.38;4735332;30;20341;-90
2023/07/04 04:20:06;;;;;;;;;;;;;;;;;;;;;
2023/07/04 04:36:48;;;;;;;19.93;13.97;;;;;;;-141.97;75.86;47307.66;5122746;27;20516;-90
2023/07/04 04:39:14;;;;;;;21.90;14.13;;;;;;;-141.97;74.89;47349.94;5090497;28;20253;-90
2023/07/04 04:41:41;;;;;;;21.70;14.10;;;;;;;-141.97;75.15;47273.06;5090443;28;20164;-91
2023/07/04 04:44:09;;;;;;;18.77;13.77;;;;;;;-141.97;74.68;47269.22;5089799;28;20175;-89
2023/07/04 04:46:34;;;;;;;20.00;14.40;;;;;;;-141.97;73.85;47757.41;5090017;28;20170;-91
2023/07/04 04:49:03;;;;;;;19.27;13.23;;;;;;;-141.97;72.84;47326.88;5088059;28;20199;-88
2023/07/04 04:51:31;;;;;;;18.97;13.17;;;;;;;-141.97;72.79;47563.28;5085362;28;20418;-89
2023/07/04 04:54:09;;;;;;;20.87;13.40;;;;;;;-141.97;71.25;47501.78;5079941;28;20240;-90
2023/07/04 04:57:12;;;;;;;;;;;;;;;;;;;;;
2023/07/04 05:00:22;;;;;;;15.73;12.67;;;;;;;-141.97;69.77;47649.78;5070762;28;20165;-91
2023/07/04 05:02:47;;;;;;;21.60;12.93;;;;;;;-141.97;69.46;47538.28;5067869;28;20275;-91
2023/07/04 05:05:13;;;;;;;17.60;13.30;;;;;;;-141.97;68.82;47522.91;5067429;28;20192;-89
2023/07/04 05:07:38;;;;;;;17.97;13.37;;;;;;;-141.97;68.42;47457.56;5068697;28;20223;-89
2023/07/04 05:10:05;;;;;;;18.83;12.87;;;;;;;-141.97;67.58;47680.53;5077331;28;20548;-90
2023/07/04 05:12:31;;;;;;;20.03;13.50;;;;;;;-141.97;66.77;47511.38;5071381;28;20165;-91
2023/07/04 05:14:57;;;;;;;17.23;12.90;;;;;;;-141.97;66.36;47703.59;5069581;28;20287;-90
2023/07/04 05:17:23;;;;;;;16.67;13.63;;;;;;;-141.97;66.54;47699.75;5092198;28;20176;-90
2023/07/04 05:19:50;;;;;;;17.13;13.33;;;;;;;-141.97;65.98;47323.03;5105741;28;20203;-91
2023/07/04 05:22:19;;;;;;;15.43;11.87;;;;;;;-141.97;64.61;47715.13;5088582;28;20172;-90
2023/07/04 05:24:44;;;;;;;20.50;12.43;;;;;;;-141.97;63.67;47584.44;5089667;28;20172;-88
2023/07/04 05:27:10;;;;;;;15.07;11.50;;;;;;;-141.97;62.42;47707.44;5088601;28;20184;-91
2023/07/04 05:29:36;;;;;;;14.50;11.77;;;;;;;-141.97;62.33;47348.03;5122366;28;20168;-82
2023/07/04 05:32:01;;;;;;;17.83;12.07;;;;;;;-141.97;62.40;47521.00;5087620;28;20172;-82
2023/07/04 05:34:27;;;;;;;18.13;11.80;;;;;;;-141.97;61.54;47307.66;5086607;28;20215;-83
2023/07/04 05:36:52;;;;;;;19.77;12.03;;;;;;;-141.97;61.19;47647.84;5086819;28;20202;-82
2023/07/04 05:39:18;;;;;;;18.53;12.10;;;;;;;-141.97;60.44;47680.53;5087659;28;20172;-82
2023/07/04 05:41:43;;;;;;;20.53;12.17;;;;;;;-141.97;60.16;47499.84;5087421;28;20172;-82
2023/07/04 05:44:09;;;;;;;14.37;11.77;;;;;;;-141.97;59.37;47519.06;5087785;28;20546;-82
2023/07/04 05:46:35;;;;;;;22.25;11.88;;;;;;;-141.97;58.47;47513.31;5081491;28;20162;-81
2023/07/04 05:49:02;;;;;;;16.70;12.25;;;;;;;-141.97;58.10;47507.53;5072938;28;20202;-81
2023/07/04 05:51:28;;;;;;;16.15;11.93;;;;;;;-141.97;57.83;47509.47;5074145;28;20171;-81
2023/07/04 05:53:54;;;;;;;15.47;12.23;;;;;;;-141.97;58.53;47515.22;5094848;28;20169;-81
2023/07/04 05:56:25;;;;;;;16.07;11.70;;;;;;;-141.97;58.13;47509.47;5092538;28;20248;-81
2023/07/04 05:58:54;;;;;;;16.27;12.70;;;;;;;-141.97;57.83;47469.09;5069421;28;20210;-81
2023/07/04 06:01:22;;;;;;;17.20;12.70;;;;;;;-141.97;58.74;47494.09;5068568;28;20188;-80
2023/07/04 06:03:48;;;;;;;16.60;12.53;;;;;;;-141.97;58.15;47526.75;5073482;28;20663;-81
2023/07/04 06:06:21;;;;;;;14.63;11.90;;;;;;;-141.97;57.87;47476.78;5028583;28;20238;-81
2023/07/04 06:08:48;;;;;;;17.87;11.77;;;;;;;-141.97;57.36;47519.06;5032231;28;20264;-81
2023/07/04 06:11:14;;;;;;;16.80;12.52;;;;;;;-141.97;57.01;47492.16;5031034;28;20537;-81
2023/07/04 06:13:39;;;;;;;16.35;12.60;;;;;;;-141.97;55.93;47492.16;5013233;28;20183;-81
2023/07/04 06:16:05;;;;;;;16.58;12.93;;;;;;;-141.97;54.77;47480.63;5023130;28;20214;-81
2023/07/04 06:18:31;;;;;;;20.30;13.25;;;;;;;-141.97;53.35;47488.31;5025178;28;20574;-81
2023/07/04 06:21:12;;;;;;;17.45;13.10;;;;;;;-141.97;52.86;47440.28;5028452;28;20192;-80
2023/07/04 06:23:39;;;;;;;16.63;12.13;;;;;;;-141.97;53.65;47486.41;5025889;28;20174;-82
2023/07/04 06:26:06;;;;;;;17.65;12.43;;;;;;;-141.97;53.44;47476.78;5030156;28;20639;-82
2023/07/04 06:28:32;;;;;;;17.73;12.25;;;;;;;-141.97;53.22;47461.41;5028210;28;20209;-85
2023/07/04 06:30:58;;;;;;;16.20;12.05;;;;;;;-141.97;52.80;47451.81;5029288;28;20198;-84
2023/07/04 06:33:24;;;;;;;16.65;12.45;;;;;;;-141.97;53.32;47461.41;5030489;28;20481;-82
2023/07/04 06:35:49;;;;;;;19.58;12.18;;;;;;;-141.97;53.04;47538.28;5033023;28;20231;-82
2023/07/04 06:38:15;;;;;;;15.02;11.98;;;;;;;-141.97;51.96;47396.06;5031984;28;20184;-85
2023/07/04 06:40:41;;;;;;;15.18;11.82;;;;;;;-141.97;51.20;47476.78;5031186;28;20581;-82
2023/07/04 06:43:06;;;;;;;13.77;11.30;;;;;;;-141.97;50.94;47449.88;5027852;28;20203;-79
2023/07/04 06:45:35;;;;;;;15.48;11.68;;;;;;;-141.97;51.91;47488.31;5012907;28;20264;-82
2023/07/04 06:48:00;;;;;;;15.15;11.40;;;;;;;-141.97;51.21;47430.66;5012203;28;20186;-81
2023/07/04 06:50:26;;;;;;;13.75;11.15;;;;;;;-141.97;51.50;47444.13;5030029;28;20196;-81
2023/07/04 06:52:52;;;;;;;13.65;11.05;;;;;;;-141.97;50.17;47467.19;5032422;28;20522;-81
2023/07/04 06:55:17;;;;;;;16.05;11.32;;;;;;;-141.97;49.44;47469.09;5032737;28;20284;-84
2023/07/04 06:57:43;;;;;;;12.13;10.65;;;;;;;-141.97;49.23;47499.84;5034333;28;20180;-83
2023/07/04 07:00:09;;;;;;;17.08;11.10;;;;;;;-141.97;48.67;47453.72;5032182;28;20172;-84
2023/07/04 07:02:35;;;;;;;17.17;11.07;;;;;;;-141.97;47.68;47440.28;5031984;28;20530;-83
2023/07/04 07:05:01;;;;;;;13.80;10.63;;;;;;;-141.97;47.08;47447.97;5031825;28;20200;-83
2023/07/04 07:07:26;;;;;;;13.40;10.60;;;;;;;-141.97;47.90;47411.44;5032855;28;20162;-82
2023/07/04 07:09:52;;;;;;;14.05;10.15;;;;;;;-141.97;48.73;47449.88;5020073;28;20296;-82
2023/07/04 07:12:17;;;;;;;14.55;10.85;;;;;;;-141.97;49.27;47430.66;5032270;28;20249;-82
2023/07/04 07:14:47;;;;;;;16.08;11.43;;;;;;;-141.97;48.63;47424.91;5032250;28;20288;-82
2023/07/04 07:17:12;;;;;;;16.70;10.88;;;;;;;-141.97;47.49;47446.03;5032376;28;20161;-83
2023/07/04 07:19:38;;;;;;;14.90;11.13;;;;;;;-141.97;47.02;47590.19;5030517;28;20180;-83
2023/07/04 07:22:24;;;;;;;12.35;10.68;;;;;;;-141.97;46.85;47434.50;5032617;28;20169;-82
2023/07/04 07:24:49;;;;;;;12.80;10.73;;;;;;;-141.97;46.13;47396.06;5031868;28;20248;-82
2023/07/04 07:27:15;;;;;;;12.80;10.95;;;;;;;-141.97;46.76;47428.75;5032142;28;20657;-81
2023/07/04 07:29:40;;;;;;;13.77;10.77;;;;;;;-141.97;46.83;47422.97;5034115;28;20192;-81
2023/07/04 07:32:06;;;;;;;13.93;11.38;;;;;;;-141.97;45.78;47382.63;5032145;28;20167;-81
2023/07/04 07:34:32;;;;;;;13.73;10.70;;;;;;;-141.97;46.46;47417.22;5042947;28;20160;-83
2023/07/04 07:36:57;;;;;;;14.23;10.95;;;;;;;-141.97;46.27;47434.50;5052244;28;20577;-83
2023/07/04 07:39:23;;;;;;;13.30;10.95;;;;;;;-141.97;45.65;47398.00;5041447;28;20200;-83
2023/07/04 07:41:48;;;;;;;13.27;11.07;;;;;;;-141.97;45.16;47622.88;5032058;28;20576;-83
2023/07/04 07:44:16;;;;;;;13.88;10.90;;;;;;;-141.97;45.63;47380.69;5032069;28;20169;-83
2023/07/04 07:46:43;;;;;;;13.80;11.02;;;;;;;-141.97;45.22;47430.66;5033873;28;20186;-84
2023/07/04 07:49:08;;;;;;;12.90;10.80;;;;;;;-141.97;44.93;47415.28;5030678;28;20238;-84
2023/07/04 07:51:35;;;;;;;15.05;10.65;;;;;;;-141.97;44.29;47369.16;5031190;28;20629;-83
2023/07/04 07:54:01;;;;;;;13.05;10.82;;;;;;;-141.97;43.32;47380.69;5030425;28;20177;-84
2023/07/04 07:56:32;;;;;;;13.65;10.90;;;;;;;-141.97;44.14;47278.84;5030898;28;20228;-85
2023/07/04 07:58:58;;;;;;;13.48;10.60;;;;;;;-141.97;43.72;47357.63;5031340;28;20166;-84
2023/07/04 08:01:28;;;;;;;14.68;11.25;;;;;;;-141.97;43.55;47371.09;5030591;28;20249;-85
2023/07/04 08:03:55;;;;;;;14.57;10.95;;;;;;;-141.97;43.91;47369.16;5032538;28;20207;-84
2023/07/04 08:06:20;;;;;;;15.15;10.65;;;;;;;-141.97;43.64;47376.84;5031348;28;20177;-85
2023/07/04 08:08:45;;;;;;;12.77;11.18;;;;;;;-141.97;43.20;47369.16;5031512;28;20575;-83
2023/07/04 08:11:15;;;;;;;15.55;11.20;;;;;;;-141.97;42.70;47311.50;5030978;28;20161;-83
2023/07/04 08:13:43;;;;;;;18.42;11.63;;;;;;;-141.97;42.91;47374.94;5031550;28;20162;-85
2023/07/04 08:16:09;;;;;;;15.02;11.50;;;;;;;-141.97;42.59;47376.84;5032438;28;20209;-84
2023/07/04 08:18:35;;;;;;;16.88;11.38;;;;;;;-141.97;41.62;47359.56;5042242;28;20249;-85
2023/07/04 08:21:03;;;;;;;12.88;11.15;;;;;;;-141.97;41.21;47359.56;5037503;28;20189;-84
2023/07/04 08:23:29;;;;;;;17.77;11.45;;;;;;;-141.97;41.90;47357.63;5032091;28;20166;-84
2023/07/04 08:25:55;;;;;;;14.00;11.45;;;;;;;-141.97;41.61;47288.44;5031904;28;20213;-84
2023/07/04 08:28:26;;;;;;;15.90;12.10;;;;;;;-141.97;41.30;47340.34;5032138;28;20639;-84
2023/07/04 08:30:52;;;;;;;12.13;10.10;;;;;;;-141.97;40.93;47517.16;5031758;28;20173;-83
2023/07/04 08:33:18;;;;;;;14.18;10.73;;;;;;;-141.97;41.13;47340.34;5031242;28;20217;-83
2023/07/04 08:35:55;;;;;;;18.45;11.43;;;;;;;-141.97;41.13;47388.38;5031052;28;20237;-82
2023/07/04 08:38:21;;;;;;;16.05;11.45;;;;;;;-141.97;40.38;47355.72;5030786;28;20486;-82
2023/07/04 08:40:47;;;;;;;14.70;11.18;;;;;;;-141.97;40.22;47338.41;5029359;28;20185;-82
2023/07/04 08:43:13;;;;;;;13.50;11.50;;;;;;;-141.97;40.67;47351.88;5030387;28;20174;-83
2023/07/04 08:45:39;;;;;;;14.35;11.60;;;;;;;-141.97;40.46;47328.81;5030253;28;20158;-83
2023/07/04 08:48:05;;;;;;;13.85;11.50;;;;;;;-141.97;39.93;47342.25;5063410;28;20170;-83
2023/07/04 08:50:36;;;;;;;14.75;11.23;;;;;;;-141.97;39.83;47373.00;5031088;28;20185;-84
2023/07/04 08:53:10;;;;;;;16.75;11.20;;;;;;;-141.97;39.13;47323.03;5030157;28;20531;-84
2023/07/04 08:55:59;;;;;;;15.07;11.23;;;;;;;-141.97;40.01;47353.78;5031732;28;20190;-85
2023/07/04 08:58:30;;;;;;;12.73;11.27;;;;;;;-141.97;38.63;47346.09;5031277;28;20610;-83
2023/07/04 09:00:58;;;;;;;14.07;11.50;;;;;;;-141.97;38.73;47342.25;5030844;28;20656;-83
2023/07/04 09:03:36;;;;;;;14.88;11.55;;;;;;;-141.97;39.26;47349.94;5031279;28;20221;-84
2023/07/04 09:06:13;;;;;;;14.63;11.00;;;;;;;-141.97;39.07;47317.28;5031119;28;20178;-81
2023/07/04 09:08:55;;;;;;;14.40;11.38;;;;;;;-141.97;39.25;47353.78;5031843;28;20162;-85
2023/07/04 09:11:22;;;;;;;13.73;11.13;;;;;;;-141.97;39.11;47330.72;5023951;28;20248;-84
2023/07/04 09:13:55;;;;;;;12.32;10.98;;;;;;;-141.97;39.07;47273.06;5030894;28;20185;-85
2023/07/04 09:16:36;;;;;;;14.52;12.10;;;;;;;-141.97;39.11;47317.28;5031033;28;20201;-83
2023/07/04 09:19:05;;;;;;;14.20;11.20;;;;;;;-141.97;38.58;47346.09;5021633;28;20689;-83
2023/07/04 09:21:31;;;;;;;12.75;11.07;;;;;;;-141.97;38.75;47340.34;5031478;28;20174;-83
2023/07/04 09:23:59;;;;;;;12.52;11.05;;;;;;;-141.97;38.72;47342.25;5034564;28;20335;-84
2023/07/04 09:26:36;;;;;;;14.00;11.23;;;;;;;-141.97;39.05;47213.50;5035792;28;20170;-83
2023/07/04 09:29:06;;;;;;;13.63;11.15;;;;;;;-141.97;39.59;47311.50;5035465;28;20684;-84
2023/07/04 09:31:36;;;;;;;11.80;10.60;;;;;;;-141.97;39.23;47326.88;5035648;28;20184;-83
2023/07/04 09:34:06;;;;;;;12.98;11.27;;;;;;;-141.97;39.41;47330.72;5035449;28;20162;-83
2023/07/04 09:36:35;;;;;;;14.18;10.18;;;;;;;-141.97;38.57;47334.56;5034689;28;20214;-83
2023/07/04 09:39:05;;;;;;;14.43;11.38;;;;;;;-141.97;38.96;47324.97;5034108;28;20216;-82
2023/07/04 09:41:32;;;;;;;12.52;11.23;;;;;;;-141.97;39.38;47334.56;5034736;28;20173;-84
2023/07/04 09:44:13;;;;;;;12.02;10.77;;;;;;;-141.97;38.78;47369.16;5036774;28;20192;-83
2023/07/04 09:46:39;;;;;;;12.52;11.23;;;;;;;-141.97;37.77;47299.97;5035063;28;20177;-83
2023/07/04 09:49:24;;;;;;;12.82;11.05;;;;;;;-141.97;37.48;47292.28;5035496;28;20170;-83
2023/07/04 09:52:01;;;;;;;13.18;11.00;;;;;;;-141.97;37.30;47323.03;5034397;28;20163;-86
2023/07/04 09:54:27;;;;;;;13.50;11.30;;;;;;;-141.97;37.54;47303.81;5034751;28;20157;-82
2023/07/04 09:56:53;;;;;;;13.18;11.73;;;;;;;-141.97;36.87;47319.19;5033155;28;20174;-82
2023/07/04 09:59:28;;;;;;;13.77;11.18;;;;;;;-141.97;37.11;47651.69;5034643;28;20606;-82
2023/07/04 10:01:59;;;;;;;13.32;11.93;;;;;;;-141.97;38.26;47330.72;5036345;28;20244;-84
2023/07/04 10:04:34;;;;;;;13.68;11.23;;;;;;;-141.97;38.55;47311.50;5036532;28;20154;-85
2023/07/04 10:07:00;;;;;;;16.05;12.30;;;;;;;-141.97;38.76;47150.06;5034577;28;20174;-85
2023/07/04 10:09:26;;;;;;;15.30;12.27;;;;;;;-141.97;38.21;47299.97;5034332;28;20664;-84
2023/07/04 10:12:08;;;;;;;14.70;12.05;;;;;;;-141.97;38.44;47313.44;5034775;28;20222;-86
2023/07/04 10:14:36;;;;;;;11.73;10.52;;;;;;;-141.97;38.58;47319.19;5034697;28;20504;-85
2023/07/04 10:17:14;;;;;;;12.45;10.45;;;;;;;-141.97;38.25;47305.75;5025091;28;20677;-84
2023/07/04 10:19:42;;;;;;;12.85;11.15;;;;;;;-141.97;38.22;47330.72;5034218;28;20196;-85
2023/07/04 10:22:08;;;;;;;14.70;11.38;;;;;;;-141.97;38.12;47040.53;5032713;28;20182;-85
2023/07/04 10:24:35;;;;;;;13.45;11.15;;;;;;;-141.97;39.11;47592.13;5032476;28;20180;-86
2023/07/04 10:27:09;;;;;;;13.07;10.98;;;;;;;-141.97;38.11;47396.06;5034030;28;20162;-86
2023/07/04 10:29:41;;;;;;;11.98;10.23;;;;;;;-141.97;37.48;47292.28;5033786;28;20172;-84
2023/07/04 10:32:13;;;;;;;12.05;10.85;;;;;;;-141.97;37.51;47326.88;5014960;28;20190;-84
2023/07/04 10:34:42;;;;;;;11.77;10.52;;;;;;;-141.97;37.67;47319.19;5013538;28;20304;-85
2023/07/04 10:37:12;;;;;;;11.60;10.40;;;;;;;-141.97;38.34;47305.75;5013533;28;20179;-85
2023/07/04 10:39:38;;;;;;;12.27;10.48;;;;;;;-141.97;37.98;47342.25;5028201;28;20344;-83
2023/07/04 10:42:29;;;;;;;12.48;10.75;;;;;;;-141.97;37.40;47303.81;5055324;28;20204;-83
2023/07/04 10:44:57;;;;;;;15.02;9.90;;;;;;;-141.97;37.51;47307.66;5047845;28;20651;-82
2023/07/04 10:47:30;;;;;;;10.93;9.68;;;;;;;-141.97;36.64;47324.97;5032631;28;20174;-83
2023/07/04 10:50:01;;;;;;;11.55;10.00;;;;;;;-141.97;36.04;47301.91;5032821;28;20269;-83
2023/07/04 10:52:33;;;;;;;11.02;9.80;;;;;;;-141.97;36.58;47284.59;5033367;28;20869;-82
2023/07/04 10:55:00;;;;;;;11.13;10.02;;;;;;;-141.97;36.61;47276.91;5033096;28;20204;-82
2023/07/04 10:57:33;;;;;;;11.15;10.07;;;;;;;-141.97;37.31;47319.19;5032481;28;20204;-82
2023/07/04 11:00:13;;;;;;;11.90;10.70;;;;;;;-141.97;36.69;47273.06;5032522;28;20180;-82
2023/07/04 11:03:00;;;;;;;12.00;10.30;;;;;;;-141.97;36.54;47321.13;5032523;28;20350;-82
2023/07/04 11:05:37;;;;;;;13.25;10.18;;;;;;;-141.97;37.17;47288.44;5032499;28;20189;-82
2023/07/04 11:08:08;;;;;;;11.70;10.40;;;;;;;-141.97;37.34;47292.28;5032269;28;20225;-82
2023/07/04 11:10:40;;;;;;;11.52;10.30;;;;;;;-141.97;36.60;47307.66;5031774;28;20239;-82
2023/07/04 11:13:07;;;;;;;12.65;9.95;;;;;;;-141.97;36.81;47315.34;5032528;28;20164;-82
2023/07/04 11:15:38;;;;;;;14.18;10.13;;;;;;;-141.97;36.50;47317.28;5032704;28;20198;-83
2023/07/04 11:18:05;;;;;;;11.10;9.75;;;;;;;-141.97;36.23;47346.09;5024434;28;20557;-82
2023/07/04 11:20:38;;;;;;;10.48;9.48;;;;;;;-141.97;36.75;47338.41;5045461;28;20169;-83
2023/07/04 11:23:14;;;;;;;10.88;9.77;;;;;;;-141.97;35.90;47167.38;5035425;28;20225;-83
2023/07/04 11:25:42;;;;;;;10.98;9.57;;;;;;;-141.97;36.42;47361.47;5033016;28;20158;-83
2023/07/04 11:28:25;;;;;;;10.57;9.35;;;;;;;-141.97;35.28;47288.44;5031974;28;20226;-83
2023/07/04 11:30:53;;;;;;;10.38;8.93;;;;;;;-141.97;35.29;47290.38;5034947;28;20177;-83
2023/07/04 11:33:53;;;;;;;10.05;8.95;;;;;;;-141.97;35.93;47282.69;5034775;28;20162;-83
2023/07/04 11:36:32;;;;;;;11.63;9.80;;;;;;;-141.97;35.66;47309.59;5003952;28;20227;-82
2023/07/04 11:39:04;;;;;;;10.23;9.23;;;;;;;-141.97;34.83;47278.84;5006777;28;20721;-82
2023/07/04 11:41:34;;;;;;;10.73;9.43;;;;;;;-141.97;35.34;47292.28;5009778;28;20245;-82
2023/07/04 11:44:12;;;;;;;12.68;9.23;;;;;;;-141.97;34.96;47263.47;5010187;28;20201;-83
2023/07/04 11:46:40;;;;;;;9.82;8.60;;;;;;;-141.97;34.21;47250.00;5007364;28;20198;-82
2023/07/04 11:49:19;;;;;;;10.40;9.30;;;;;;;-141.97;33.46;47253.84;5022215;28;20232;-84
2023/07/04 11:51:45;;;;;;;11.07;8.90;;;;;;;-141.97;32.67;47288.44;5023381;28;20256;-85
2023/07/04 11:54:12;;;;;;;9.70;8.70;;;;;;;-141.97;32.38;47201.97;5009847;28;20272;-82
2023/07/04 11:56:42;;;;;;;11.10;8.13;;;;;;;-141.97;30.76;47203.88;5009531;28;20201;-83
2023/07/04 11:59:20;;;;;;;9.30;8.40;;;;;;;-141.97;31.00;47144.31;5009390;28;20224;-82
2023/07/04 12:01:51;;;;;;;9.15;8.32;;;;;;;-141.97;31.25;47192.34;5009203;28;20340;-82
2023/07/04 12:04:35;;;;;;;9.27;8.30;;;;;;;-141.97;30.07;47138.53;5009508;28;20658;-82
2023/07/04 12:07:33;;;;;;;9.75;8.82;;;;;;;-141.97;30.38;47180.81;5009602;28;20173;-82
2023/07/04 12:10:01;;;;;;;9.63;8.63;;;;;;;-141.97;30.97;47176.97;5008698;28;20170;-82
2023/07/04 12:12:29;;;;;;;9.57;8.63;;;;;;;-141.97;30.40;47171.22;5014558;28;20197;-83
2023/07/04 12:15:08;;;;;;;10.63;9.00;;;;;;;-141.97;29.91;47142.38;5031176;28;20217;-83
2023/07/04 12:17:35;;;;;;;12.15;8.48;;;;;;;-141.97;29.44;47155.84;5021253;28;20153;-83
2023/07/04 12:20:03;;;;;;;9.77;8.88;;;;;;;-141.97;29.62;47148.16;5031375;28;20241;-83
2023/07/04 12:22:29;;;;;;;9.27;8.40;;;;;;;-141.97;28.98;47103.94;5031115;28;20581;-83
2023/07/04 12:25:06;;;;;;;9.30;8.45;;;;;;;-141.97;29.01;47107.78;5029966;28;20169;-83
2023/07/04 12:27:31;;;;;;;9.05;8.25;;;;;;;-141.97;29.27;47117.41;5030808;28;20171;-82
2023/07/04 12:29:58;;;;;;;11.13;8.88;;;;;;;-141.97;28.50;47077.03;5030544;28;20256;-82
2023/07/04 12:32:24;;;;;;;8.90;8.05;;;;;;;-141.97;27.82;47084.72;5030939;28;20614;-83
2023/07/04 12:34:52;;;;;;;8.85;7.95;;;;;;;-141.97;27.75;47111.63;5030836;28;20309;-84
2023/07/04 12:37:19;;;;;;;9.10;8.07;;;;;;;-141.97;27.28;47052.06;5028743;28;20668;-83
2023/07/04 12:39:48;;;;;;;8.52;7.75;;;;;;;-141.97;27.28;47092.41;5028922;28;20555;-83
2023/07/04 12:42:30;;;;;;;9.60;8.35;;;;;;;-141.97;27.57;47088.56;5032718;28;20248;-83
2023/07/04 12:44:56;;;;;;;8.90;8.10;;;;;;;-141.97;27.81;47061.66;5030697;28;20657;-83
2023/07/04 12:47:31;;;;;;;9.70;8.70;;;;;;;-141.97;28.22;47082.81;5030826;28;20199;-83
2023/07/04 12:50:00;;;;;;;9.15;8.35;;;;;;;-141.97;27.85;47069.34;5030694;28;20661;-84
2023/07/04 12:52:31;;;;;;;9.10;8.27;;;;;;;-141.97;27.67;47061.66;5030953;28;20230;-84
2023/07/04 12:55:00;;;;;;;9.40;8.50;;;;;;;-141.97;28.23;47100.09;5030685;28;20189;-83
2023/07/04 12:57:27;;;;;;;9.15;8.25;;;;;;;-141.97;27.74;47069.34;5032645;28;20652;-83
2023/07/04 13:00:05;;;;;;;9.70;8.13;;;;;;;-141.97;27.94;47061.66;5034522;28;20263;-85